Chatfield, Ohio
Current Conditions -  °F | °C
As of 9:33 PM on Wednesday 17 Dec 2014 (Local Time) from KMFD Reporting Station
Overcast Overcast  
Wind Chill: 16°   Ceiling: 1900
Heat Index: 26°   Visibility: 10mi
Dew Point: 22°   Wind: 12mph
Humidity: 84%   Direction: 270°W
Pressure: 30.16"   Gusts: NA
Location:  40.95°N, 82.94°W
Report Text: KMFD 180233Z 27010KT 10SM SCT014 OVC019 M03/M06 A3016 RMK AO2 T10331056
Loading
Personal Weather Stations






























Interactive Weather Map New forecast layout! Learn more

10-Day Weather Forecast

Advertisements
Track Severe Weather on mobile